Time;durP1;ratioP1;P1;durP2;ratioP2;P2;SDS_P1;SDS_P2;PMS_P1;PMS_P2;Temp;Humidity;BMP_temperature;BMP_pressure;BME280_temperature;BME280_humidity;BME280_pressure;Samples;Min_cycle;Max_cycle;Signal;HPM_P1;HPM_P2
2022/03/24 00:00:24;;;;;;;84.77;31.53;;;;;;;3.62;57.99;97493.84;5133495;27;21066;-37
2022/03/24 00:02:52;;;;;;;76.73;26.87;;;;;;;3.73;57.97;97510.22;5133811;27;20795;-38
2022/03/24 00:05:19;;;;;;;86.13;28.70;;;;;;;3.71;58.06;97506.94;5133726;27;20444;-37
2022/03/24 00:07:47;;;;;;;75.70;25.90;;;;;;;3.69;58.16;97505.28;5133780;27;20441;-37
2022/03/24 00:10:14;;;;;;;76.40;28.13;;;;;;;3.67;57.70;97496.75;5133696;27;20532;-37
2022/03/24 00:12:44;;;;;;;82.90;26.37;;;;;;;3.67;58.07;97495.97;5134034;27;20939;-37
2022/03/24 00:15:11;;;;;;;78.17;26.90;;;;;;;3.67;58.09;97496.75;5135324;27;20437;-37
2022/03/24 00:17:39;;;;;;;75.07;23.33;;;;;;;3.66;58.03;97495.16;5137319;27;20445;-37
2022/03/24 00:20:07;;;;;;;64.70;22.23;;;;;;;3.64;57.95;97481.38;5137553;27;20484;-38
2022/03/24 00:22:34;;;;;;;58.10;22.03;;;;;;;3.61;58.07;97484.34;5137220;27;20444;-37
2022/03/24 00:25:01;;;;;;;60.67;19.67;;;;;;;3.60;57.92;97485.34;5137216;27;20446;-37
2022/03/24 00:27:28;;;;;;;58.67;22.00;;;;;;;3.60;58.20;97477.47;5137441;27;20982;-38
2022/03/24 00:29:57;;;;;;;56.50;21.83;;;;;;;3.57;58.17;97477.81;5137448;27;20433;-37
2022/03/24 00:32:25;;;;;;;47.57;17.60;;;;;;;3.53;58.69;97468.66;5137033;27;20437;-37
2022/03/24 00:34:52;;;;;;;62.43;19.53;;;;;;;3.52;58.43;97467.00;5137020;27;20482;-37
2022/03/24 00:37:19;;;;;;;47.60;17.70;;;;;;;3.51;58.82;97465.38;5136914;27;20455;-37
2022/03/24 00:39:48;;;;;;;38.73;15.20;;;;;;;3.48;58.81;97470.97;5136856;27;20441;-38
2022/03/24 00:42:15;;;;;;;50.20;16.20;;;;;;;3.46;58.22;97463.28;5136854;27;20437;-37
2022/03/24 00:44:44;;;;;;;38.90;14.77;;;;;;;3.47;58.07;97456.22;5136799;27;20441;-37
2022/03/24 00:47:15;;;;;;;39.17;13.70;;;;;;;3.47;58.07;97450.97;5136956;27;20441;-38
2022/03/24 00:49:43;;;;;;;33.20;12.37;;;;;;;3.47;57.97;97454.41;5137000;27;20525;-37
2022/03/24 00:52:11;;;;;;;38.27;13.03;;;;;;;3.45;58.03;97445.09;5136652;27;20814;-37
2022/03/24 00:54:38;;;;;;;23.43;10.30;;;;;;;3.42;58.17;97434.91;5136962;27;20441;-37
2022/03/24 00:57:06;;;;;;;36.83;9.23;;;;;;;3.37;58.06;97429.38;5136904;27;20442;-37
2022/03/24 00:59:34;;;;;;;22.37;10.20;;;;;;;3.42;58.13;97438.38;5136880;27;20491;-38
2022/03/24 01:02:01;;;;;;;15.73;8.43;;;;;;;3.40;57.60;97429.88;5136306;27;20581;-37
2022/03/24 01:04:30;;;;;;;14.43;7.23;;;;;;;3.40;57.84;97431.66;5136439;27;20445;-37
2022/03/24 01:06:57;;;;;;;15.13;8.50;;;;;;;3.39;57.76;97424.78;5136390;27;20848;-37
2022/03/24 01:09:24;;;;;;;18.37;8.80;;;;;;;3.39;57.62;97430.03;5136610;27;20472;-37
2022/03/24 01:11:52;;;;;;;17.80;7.30;;;;;;;3.38;58.16;97425.78;5136317;27;20448;-37
2022/03/24 01:14:19;;;;;;;14.63;7.00;;;;;;;3.37;58.30;97426.75;5136549;27;20548;-37
2022/03/24 01:16:46;;;;;;;20.63;8.43;;;;;;;3.35;57.78;97411.19;5136520;27;20523;-37
2022/03/24 01:19:15;;;;;;;16.10;8.00;;;;;;;3.36;57.87;97412.81;5136200;27;20434;-37
2022/03/24 01:21:44;;;;;;;20.33;8.43;;;;;;;3.34;57.88;97400.88;5136356;27;20496;-37
2022/03/24 01:24:11;;;;;;;28.73;11.50;;;;;;;3.31;57.97;97402.00;5136404;27;20441;-37
2022/03/24 01:26:39;;;;;;;30.47;8.13;;;;;;;3.31;57.93;97393.34;5135811;27;20448;-37
2022/03/24 01:29:08;;;;;;;26.57;7.70;;;;;;;3.30;57.94;97399.59;5135960;27;20478;-37
2022/03/24 01:31:39;;;;;;;20.03;7.37;;;;;;;3.28;58.12;97392.69;5135850;27;20441;-37
2022/03/24 01:34:06;;;;;;;18.43;7.40;;;;;;;3.28;58.21;97395.31;5136276;27;20433;-37
2022/03/24 01:36:35;;;;;;;22.63;8.63;;;;;;;3.27;57.93;97380.56;5136128;27;20437;-37
2022/03/24 01:39:04;;;;;;;20.20;9.37;;;;;;;3.24;58.13;97380.91;5136100;27;20441;-38
2022/03/24 01:41:33;;;;;;;22.33;9.30;;;;;;;3.21;58.10;97383.09;5135538;27;20492;-38
2022/03/24 01:44:03;;;;;;;23.27;11.30;;;;;;;3.22;57.75;97377.63;5135959;27;20789;-37
2022/03/24 01:46:32;;;;;;;36.13;15.90;;;;;;;3.24;57.73;97373.03;5135576;27;20437;-39
2022/03/24 01:48:59;;;;;;;28.83;12.90;;;;;;;3.26;57.62;97378.91;5135509;27;20445;-37
2022/03/24 01:51:26;;;;;;;27.47;12.20;;;;;;;3.27;57.33;97374.50;5135859;27;20495;-37
2022/03/24 01:53:57;;;;;;;18.30;9.60;;;;;;;3.27;57.42;97370.06;5135399;27;20532;-37
2022/03/24 01:56:26;;;;;;;17.07;9.43;;;;;;;3.28;57.71;97371.69;5135476;27;20901;-37
2022/03/24 01:58:56;;;;;;;22.20;11.50;;;;;;;3.26;57.69;97368.44;5135669;27;20444;-37
2022/03/24 02:01:36;;;;;;;28.17;12.57;;;;;;;3.24;58.07;97365.16;5135134;27;20493;-37
2022/03/24 02:04:05;;;;;;;26.20;12.67;;;;;;;3.22;58.31;97367.13;5135245;27;20437;-37
2022/03/24 02:06:33;;;;;;;24.20;11.20;;;;;;;3.19;58.55;97362.25;5135177;27;20928;-36
2022/03/24 02:09:00;;;;;;;22.70;12.90;;;;;;;3.03;58.38;97349.25;5135182;27;20456;-37
2022/03/24 02:11:30;;;;;;;37.00;14.73;;;;;;;3.01;59.22;97340.72;5135038;27;20528;-37
2022/03/24 02:13:58;;;;;;;38.53;12.53;;;;;;;3.12;58.85;97361.34;5135170;27;20524;-37
2022/03/24 02:16:27;;;;;;;30.03;11.10;;;;;;;3.12;58.96;97363.97;5135870;27;20441;-37
2022/03/24 02:18:59;;;;;;;32.20;12.53;;;;;;;3.07;58.46;97363.66;5135308;27;20441;-37
2022/03/24 02:21:26;;;;;;;29.00;10.20;;;;;;;2.98;58.68;97346.34;5134937;27;20559;-37
2022/03/24 02:23:55;;;;;;;23.87;11.17;;;;;;;3.02;58.55;97355.50;5135259;27;20472;-38
2022/03/24 02:26:22;;;;;;;19.47;10.40;;;;;;;3.03;58.51;97357.13;5134847;27;20437;-38
2022/03/24 02:28:56;;;;;;;18.13;7.83;;;;;;;3.02;58.78;97355.50;5135155;27;20436;-37
2022/03/24 02:31:24;;;;;;;19.03;11.20;;;;;;;3.04;58.78;97354.31;5134812;27;20901;-37
2022/03/24 02:34:37;;;;;;;14.90;7.00;;;;;;;3.02;58.54;97351.06;5134651;27;20451;-38
2022/03/24 02:36:40;;;;;;;14.67;8.73;;;;;;;3.05;57.64;97349.88;5134447;27;20445;-37
2022/03/24 02:39:09;;;;;;;22.67;9.23;;;;;;;3.04;58.70;97345.66;5134326;27;20840;-38
2022/03/24 02:41:46;;;;;;;26.30;13.57;;;;;;;3.00;58.81;97360.91;5134867;27;20575;-38
2022/03/24 02:44:14;;;;;;;20.30;14.20;;;;;;;2.97;58.78;97356.03;5134992;27;20429;-38
2022/03/24 02:46:43;;;;;;;21.63;11.60;;;;;;;2.95;59.06;97355.38;5134526;27;20445;-38
2022/03/24 02:49:10;;;;;;;42.53;12.97;;;;;;;2.93;58.88;97352.13;5134563;27;20433;-37
2022/03/24 02:51:38;;;;;;;41.50;13.00;;;;;;;2.91;59.29;97342.78;5134506;27;20441;-38
2022/03/24 02:54:05;;;;;;;22.80;11.50;;;;;;;2.89;59.50;97347.38;5134441;27;20448;-38
2022/03/24 02:56:34;;;;;;;16.17;10.90;;;;;;;2.90;59.19;97343.75;5134476;27;20441;-37
2022/03/24 02:59:01;;;;;;;14.63;9.00;;;;;;;2.88;59.14;97349.19;5134380;27;20441;-37
2022/03/24 03:01:28;;;;;;;39.53;8.90;;;;;;;2.87;59.27;97342.31;5134201;27;20497;-38
2022/03/24 03:03:56;;;;;;;12.33;7.17;;;;;;;2.88;59.19;97346.56;5134325;27;20437;-38
2022/03/24 03:06:23;;;;;;;14.60;6.37;;;;;;;2.89;58.92;97352.63;5134309;27;20444;-37
2022/03/24 03:08:51;;;;;;;27.67;8.20;;;;;;;2.89;59.35;97344.78;5134661;27;20809;-37
2022/03/24 03:11:20;;;;;;;29.00;8.43;;;;;;;2.90;59.01;97349.00;5134269;27;20483;-38
2022/03/24 03:13:50;;;;;;;21.17;8.73;;;;;;;2.87;59.29;97337.06;5134551;27;20812;-37
2022/03/24 03:16:17;;;;;;;36.60;10.00;;;;;;;2.86;59.35;97344.13;5134487;27;20445;-37
2022/03/24 03:18:44;;;;;;;32.00;9.93;;;;;;;2.85;59.46;97339.84;5134227;27;20939;-38
2022/03/24 03:21:12;;;;;;;21.77;7.60;;;;;;;2.83;59.49;97339.22;5134078;27;20990;-38
2022/03/24 03:23:40;;;;;;;21.53;9.93;;;;;;;2.81;59.80;97343.00;5134835;27;20448;-38
2022/03/24 03:26:07;;;;;;;22.97;8.80;;;;;;;2.63;59.68;97314.44;5135050;27;20440;-37
2022/03/24 03:28:35;;;;;;;22.63;10.03;;;;;;;2.60;59.72;97314.78;5134104;27;20449;-37
2022/03/24 03:31:05;;;;;;;18.00;9.07;;;;;;;2.72;60.02;97331.75;5134477;27;20445;-37
2022/03/24 03:33:32;;;;;;;32.40;9.30;;;;;;;2.59;60.41;97323.63;5134662;27;20512;-37
2022/03/24 03:36:00;;;;;;;32.17;8.83;;;;;;;2.66;60.25;97329.81;5134432;27;20458;-38
2022/03/24 03:38:27;;;;;;;14.10;7.40;;;;;;;2.66;60.48;97330.63;5134042;27;20548;-38
2022/03/24 03:40:55;;;;;;;10.30;6.83;;;;;;;2.65;60.10;97329.00;5133904;27;20477;-37
2022/03/24 03:43:23;;;;;;;16.50;5.90;;;;;;;2.66;59.66;97335.06;5133991;27;20529;-37
2022/03/24 03:45:51;;;;;;;13.43;6.63;;;;;;;2.67;59.63;97336.72;5133919;27;20447;-37
2022/03/24 03:48:19;;;;;;;22.03;9.20;;;;;;;2.64;59.29;97337.84;5133897;27;20451;-36
2022/03/24 03:50:47;;;;;;;19.17;8.57;;;;;;;2.64;59.38;97337.03;5136943;27;20484;-38
2022/03/24 03:53:14;;;;;;;19.63;6.90;;;;;;;2.63;59.66;97330.16;5137822;27;20440;-37
2022/03/24 03:55:41;;;;;;;21.90;8.27;;;;;;;2.61;59.77;97327.72;5138034;27;20456;-37
2022/03/24 03:58:10;;;;;;;20.20;8.03;;;;;;;2.61;60.06;97334.78;5137984;27;20441;-37
2022/03/24 04:03:25;;;;;;;21.30;10.50;;;;;;;2.51;60.28;97319.25;5137732;27;20480;-37
2022/03/24 04:05:54;;;;;;;32.03;11.90;;;;;;;2.50;60.75;97315.00;5137794;27;20432;-38
2022/03/24 04:08:22;;;;;;;30.93;12.70;;;;;;;2.49;61.22;97315.97;5137592;27;20916;-38
2022/03/24 04:10:50;;;;;;;19.67;9.43;;;;;;;2.46;60.81;97322.38;5137482;27;20919;-37
2022/03/24 04:13:19;;;;;;;31.70;15.50;;;;;;;2.49;60.10;97307.31;5137430;27;20487;-39
2022/03/24 04:15:46;;;;;;;41.73;14.13;;;;;;;2.51;59.88;97315.81;5137393;27;20970;-38
2022/03/24 04:18:14;;;;;;;42.70;14.50;;;;;;;2.45;59.83;97302.41;5137360;27;20987;-38
2022/03/24 04:20:44;;;;;;;23.43;11.37;;;;;;;2.54;59.70;97318.06;5137283;27;20481;-38
2022/03/24 04:23:11;;;;;;;34.10;13.00;;;;;;;2.57;59.91;97309.88;5137248;27;20453;-38
2022/03/24 04:25:39;;;;;;;22.47;11.53;;;;;;;2.60;59.98;97309.53;5137374;27;20442;-37
2022/03/24 04:28:07;;;;;;;24.27;10.10;;;;;;;2.64;60.48;97314.25;5137539;27;20438;-39
2022/03/24 04:30:35;;;;;;;17.27;7.70;;;;;;;2.65;60.72;97307.22;5137176;27;20442;-39
2022/03/24 04:33:04;;;;;;;16.93;8.30;;;;;;;2.70;60.64;97318.00;5137090;27;20441;-39
2022/03/24 04:35:32;;;;;;;13.23;8.10;;;;;;;2.79;60.11;97314.31;5137054;27;20444;-37
2022/03/24 04:38:02;;;;;;;20.07;9.57;;;;;;;2.97;60.16;97311.44;5137044;27;20532;-38
2022/03/24 04:40:29;;;;;;;22.57;9.67;;;;;;;3.20;59.84;97316.63;5137248;27;20472;-38
2022/03/24 04:42:57;;;;;;;31.43;15.37;;;;;;;3.47;58.95;97311.84;5136766;27;20489;-38
2022/03/24 04:45:26;;;;;;;38.20;19.87;;;;;;;3.77;58.24;97304.81;5136853;27;20442;-38
2022/03/24 04:47:54;;;;;;;39.53;16.30;;;;;;;4.12;57.27;97306.88;5136771;27;20548;-38
2022/03/24 04:50:22;;;;;;;37.90;22.20;;;;;;;4.53;56.25;97309.81;5136701;27;20524;-38
2022/03/24 04:52:49;;;;;;;36.97;20.53;;;;;;;4.90;55.56;97313.22;5136664;27;20441;-37
2022/03/24 04:55:18;;;;;;;51.03;25.90;;;;;;;5.39;54.53;97314.28;5136612;27;20932;-38
2022/03/24 04:57:46;;;;;;;77.63;35.27;;;;;;;5.87;53.44;97314.41;5136506;27;20566;-37
2022/03/24 05:00:15;;;;;;;82.87;38.47;;;;;;;6.13;52.33;97301.41;5135772;27;20813;-37
2022/03/24 05:02:43;;;;;;;76.70;33.63;;;;;;;6.67;51.43;97320.09;5136252;27;20492;-37
2022/03/24 05:05:11;;;;;;;64.23;33.93;;;;;;;7.08;50.54;97312.06;5136320;27;20476;-38
2022/03/24 05:07:39;;;;;;;88.73;38.03;;;;;;;7.37;49.79;97313.47;5136624;27;20473;-37
2022/03/24 05:10:08;;;;;;;64.37;32.83;;;;;;;7.51;49.09;97310.88;5136548;27;20649;-36
2022/03/24 05:12:39;;;;;;;43.70;21.37;;;;;;;7.79;48.56;97308.81;5136280;27;20916;-38
2022/03/24 05:15:08;;;;;;;37.20;20.40;;;;;;;8.05;48.20;97309.78;5134912;27;20931;-38
2022/03/24 05:17:35;;;;;;;39.93;22.20;;;;;;;8.31;48.24;97316.81;5136233;27;20480;-38
2022/03/24 05:20:03;;;;;;;30.93;16.33;;;;;;;8.53;47.96;97314.72;5136320;27;20441;-37
2022/03/24 05:22:30;;;;;;;96.27;41.77;;;;;;;8.80;47.62;97315.41;5136238;27;20489;-37
2022/03/24 05:24:57;;;;;;;121.93;49.23;;;;;;;9.16;47.22;97319.28;5135950;27;20445;-38
2022/03/24 05:27:25;;;;;;;90.80;40.00;;;;;;;9.42;46.34;97315.63;5135889;27;20490;-38
2022/03/24 05:29:54;;;;;;;47.53;19.50;;;;;;;9.75;45.88;97319.81;5135867;27;20437;-37
2022/03/24 05:32:22;;;;;;;25.63;16.50;;;;;;;10.04;45.34;97309.53;5135851;27;20451;-38
2022/03/24 05:34:50;;;;;;;24.13;14.53;;;;;;;10.35;44.60;97310.47;5136098;27;20447;-38
2022/03/24 05:37:17;;;;;;;28.00;16.03;;;;;;;10.70;43.83;97312.50;5135756;27;20928;-37
2022/03/24 05:39:44;;;;;;;24.30;13.60;;;;;;;10.92;42.90;97305.66;5135683;27;20519;-38
2022/03/24 05:42:12;;;;;;;29.93;18.60;;;;;;;11.17;42.62;97296.72;5135925;27;20488;-37
2022/03/24 05:44:39;;;;;;;31.57;19.37;;;;;;;11.37;41.32;97302.53;5135585;27;20448;-38
2022/03/24 05:47:09;;;;;;;29.87;16.10;;;;;;;11.58;40.28;97303.03;5135833;27;20469;-38
2022/03/24 05:49:36;;;;;;;28.07;16.13;;;;;;;11.41;40.57;97286.94;5135838;27;20772;-38
2022/03/24 05:52:04;;;;;;;17.93;9.53;;;;;;;11.73;41.79;97292.75;5135411;27;20518;-38
2022/03/24 05:54:32;;;;;;;22.50;8.70;;;;;;;11.88;40.84;97287.78;5135763;27;20441;-38
2022/03/24 05:56:59;;;;;;;14.37;10.70;;;;;;;11.85;40.54;97285.59;5135638;27;20493;-38
2022/03/24 05:59:27;;;;;;;20.23;8.33;;;;;;;11.75;42.00;97293.31;5135665;27;20445;-39
2022/03/24 06:01:54;;;;;;;13.43;8.07;;;;;;;11.64;42.03;97283.50;5135025;27;20516;-38
2022/03/24 06:04:24;;;;;;;16.27;7.90;;;;;;;11.64;42.70;97288.81;5135605;27;20437;-37
2022/03/24 06:06:54;;;;;;;17.03;8.17;;;;;;;11.67;43.21;97291.81;5135262;27;20517;-37
2022/03/24 06:09:22;;;;;;;24.07;9.20;;;;;;;11.56;41.89;97289.97;5135024;27;20465;-37
2022/03/24 06:11:49;;;;;;;17.90;7.40;;;;;;;11.63;42.40;97290.66;5134936;27;20445;-37
2022/03/24 06:14:17;;;;;;;20.10;8.53;;;;;;;11.70;42.37;97290.53;5134809;27;20807;-37
2022/03/24 06:16:44;;;;;;;28.73;9.50;;;;;;;12.00;42.41;97300.28;5135379;27;20827;-38
2022/03/24 06:19:12;;;;;;;16.57;8.33;;;;;;;12.19;42.32;97277.78;5134978;27;20441;-37
2022/03/24 06:21:41;;;;;;;11.33;7.93;;;;;;;12.44;41.25;97295.34;5135213;27;20495;-38
2022/03/24 06:24:09;;;;;;;16.00;6.80;;;;;;;12.82;38.74;97288.59;5134995;27;20524;-38
2022/03/24 06:26:37;;;;;;;11.93;9.20;;;;;;;13.40;37.41;97282.19;5135116;27;20437;-38
2022/03/24 06:29:04;;;;;;;19.47;11.30;;;;;;;13.87;35.76;97284.53;5134850;27;20448;-38
2022/03/24 06:31:32;;;;;;;14.60;7.40;;;;;;;14.39;35.81;97269.13;5134753;27;20441;-38
2022/03/24 06:34:00;;;;;;;24.67;9.70;;;;;;;14.76;34.64;97276.56;5134842;27;20494;-38
2022/03/24 06:36:27;;;;;;;13.83;6.93;;;;;;;14.97;33.77;97274.88;5135046;27;20444;-38
2022/03/24 06:38:56;;;;;;;20.10;11.57;;;;;;;15.24;33.62;97277.53;5134823;27;20426;-38
2022/03/24 06:41:24;;;;;;;23.80;11.00;;;;;;;15.56;33.09;97278.34;5134720;27;20448;-38
2022/03/24 06:43:51;;;;;;;11.90;7.70;;;;;;;15.75;32.00;97267.28;5134537;27;20850;-38
2022/03/24 06:46:18;;;;;;;21.73;11.10;;;;;;;15.89;31.88;97276.44;5134620;27;20455;-38
2022/03/24 06:48:46;;;;;;;17.23;7.53;;;;;;;15.93;31.54;97258.00;5134370;27;20448;-38
2022/03/24 06:51:13;;;;;;;12.50;7.47;;;;;;;16.21;31.86;97264.84;5134502;27;20460;-38
2022/03/24 06:53:40;;;;;;;10.40;7.20;;;;;;;16.42;31.36;97259.59;5134503;27;20440;-38
2022/03/24 06:56:09;;;;;;;14.73;7.37;;;;;;;16.52;30.63;97273.00;5134418;27;20469;-38
2022/03/24 06:58:36;;;;;;;14.37;8.27;;;;;;;16.70;31.10;97261.00;5134815;27;20449;-38
2022/03/24 07:01:04;;;;;;;9.13;6.13;;;;;;;16.83;31.09;97267.78;5134312;27;20806;-38
2022/03/24 07:03:31;;;;;;;10.57;7.90;;;;;;;16.82;29.77;97252.75;5134606;27;20533;-38
2022/03/24 07:05:58;;;;;;;15.90;6.83;;;;;;;16.77;30.58;97262.34;5134686;27;20448;-38
2022/03/24 07:08:26;;;;;;;18.00;7.80;;;;;;;16.69;29.60;97252.16;5134320;27;20445;-38
2022/03/24 07:10:54;;;;;;;15.00;8.43;;;;;;;16.64;30.17;97257.50;5134626;27;20442;-38
2022/03/24 07:13:23;;;;;;;19.60;10.07;;;;;;;16.67;29.90;97261.53;5134265;27;20452;-38
2022/03/24 07:15:50;;;;;;;15.63;7.97;;;;;;;16.72;29.82;97257.00;5134215;27;20451;-38
2022/03/24 07:18:18;;;;;;;23.73;9.17;;;;;;;16.89;30.04;97256.78;5134527;27;20449;-38
2022/03/24 07:20:45;;;;;;;20.27;13.20;;;;;;;16.96;29.56;97253.84;5134140;27;20452;-38
2022/03/24 07:23:12;;;;;;;19.87;9.70;;;;;;;17.07;29.50;97260.84;5134676;27;20575;-39
2022/03/24 07:25:40;;;;;;;17.13;8.33;;;;;;;17.07;29.63;97266.19;5138404;27;20466;-38
2022/03/24 07:28:10;;;;;;;18.00;8.40;;;;;;;17.11;29.28;97267.28;5138404;27;20432;-38
2022/03/24 07:30:39;;;;;;;18.53;8.00;;;;;;;17.12;28.64;97260.84;5138648;27;20437;-38
2022/03/24 07:33:07;;;;;;;14.20;8.47;;;;;;;17.18;28.72;97261.66;5138279;27;20441;-38
2022/03/24 07:35:35;;;;;;;17.53;10.13;;;;;;;17.27;29.12;97264.59;5138096;27;20561;-38
2022/03/24 07:38:03;;;;;;;14.53;8.90;;;;;;;17.37;28.54;97264.63;5138172;27;20920;-38
2022/03/24 07:40:30;;;;;;;11.70;7.30;;;;;;;17.43;28.72;97274.28;5138127;27;20468;-38
2022/03/24 07:42:58;;;;;;;14.03;6.40;;;;;;;17.34;28.80;97262.47;5138025;27;20485;-38
2022/03/24 07:45:26;;;;;;;17.53;8.43;;;;;;;17.48;28.37;97271.59;5138039;27;20955;-38
2022/03/24 07:48:25;;;;;;;18.50;11.97;;;;;;;17.45;28.85;97265.97;5137970;27;20445;-38
2022/03/24 07:50:54;;;;;;;20.80;11.67;;;;;;;17.44;28.50;97267.81;5074590;28;20454;-38
2022/03/24 07:53:35;;;;;;;16.57;12.63;;;;;;;17.63;28.23;97267.28;5074568;28;20446;-38
2022/03/24 07:56:02;;;;;;;19.13;10.67;;;;;;;17.62;27.86;97277.22;5074543;28;20868;-38
2022/03/24 07:58:30;;;;;;;24.17;12.40;;;;;;;17.55;28.19;97272.13;5074517;28;21054;-38
2022/03/24 08:00:59;;;;;;;22.00;9.47;;;;;;;17.50;27.73;97274.00;5074193;28;20991;-38
2022/03/24 08:03:28;;;;;;;22.23;10.50;;;;;;;17.53;28.36;97276.13;5074293;28;20495;-38
2022/03/24 08:05:56;;;;;;;17.23;10.03;;;;;;;17.59;28.55;97280.44;5074305;28;20481;-38
2022/03/24 08:08:24;;;;;;;24.80;10.30;;;;;;;17.57;27.66;97279.91;5074329;28;20448;-39
2022/03/24 08:10:51;;;;;;;15.10;9.30;;;;;;;17.37;27.63;97275.34;5074234;28;20473;-38
2022/03/24 08:13:20;;;;;;;14.00;7.77;;;;;;;17.28;28.05;97250.13;5074166;28;20440;-37
2022/03/24 08:15:48;;;;;;;20.47;8.30;;;;;;;17.67;27.65;97257.63;5074192;28;20483;-38
2022/03/24 08:18:17;;;;;;;16.03;9.20;;;;;;;17.71;28.37;97272.91;5074061;28;20444;-38
2022/03/24 08:20:49;;;;;;;23.00;9.63;;;;;;;17.86;27.60;97266.75;5074012;28;20485;-38
2022/03/24 08:23:17;;;;;;;16.47;10.17;;;;;;;17.89;27.21;97260.81;5073952;28;20982;-38
2022/03/24 08:25:45;;;;;;;22.40;8.90;;;;;;;18.09;27.50;97275.28;5083808;27;20448;-38
2022/03/24 08:28:13;;;;;;;14.50;9.00;;;;;;;18.07;27.42;97277.44;5137245;27;20989;-38
2022/03/24 08:30:41;;;;;;;28.50;9.67;;;;;;;18.14;28.03;97269.91;5137051;27;20928;-38
2022/03/24 08:33:10;;;;;;;13.40;8.00;;;;;;;18.30;27.23;97271.47;5137467;27;20444;-38
2022/03/24 08:35:38;;;;;;;12.70;8.60;;;;;;;18.46;27.38;97257.97;5136362;27;20445;-39
2022/03/24 08:38:07;;;;;;;21.40;10.03;;;;;;;18.68;26.85;97266.47;5137048;27;20449;-39
2022/03/24 08:40:35;;;;;;;25.77;12.73;;;;;;;18.91;27.04;97266.91;5137240;27;20487;-39
2022/03/24 08:43:05;;;;;;;19.00;9.90;;;;;;;18.92;25.79;97271.22;5136943;27;20491;-38
2022/03/24 08:45:33;;;;;;;20.63;9.53;;;;;;;18.86;25.46;97273.13;5137241;27;20802;-38
2022/03/24 08:48:00;;;;;;;18.60;9.03;;;;;;;18.95;25.76;97270.63;5136833;27;20439;-38
2022/03/24 08:50:28;;;;;;;20.90;11.40;;;;;;;19.05;25.50;97259.81;5136809;27;20475;-38
2022/03/24 08:52:55;;;;;;;14.53;10.10;;;;;;;19.02;25.36;97268.47;5136991;27;20920;-38
2022/03/24 08:55:25;;;;;;;17.97;10.13;;;;;;;19.09;25.36;97266.25;5137008;27;20445;-38
2022/03/24 08:57:53;;;;;;;12.03;7.57;;;;;;;18.96;25.63;97250.75;5136917;27;20955;-39
2022/03/24 09:00:20;;;;;;;13.97;9.40;;;;;;;19.12;25.75;97249.56;5136526;27;20487;-39
2022/03/24 09:02:49;;;;;;;14.60;8.90;;;;;;;19.37;26.43;97255.81;5136753;27;20487;-39
2022/03/24 09:05:17;;;;;;;23.87;14.33;;;;;;;19.40;25.28;97260.63;5136752;27;20841;-39
2022/03/24 09:07:44;;;;;;;14.40;9.83;;;;;;;19.13;25.10;97258.44;5136788;27;20445;-38
2022/03/24 09:10:15;;;;;;;32.00;15.23;;;;;;;19.39;26.45;97253.66;5136659;27;20456;-39
2022/03/24 09:12:45;;;;;;;21.83;9.70;;;;;;;19.45;24.61;97249.84;5136940;27;20441;-38
2022/03/24 09:15:14;;;;;;;19.83;10.20;;;;;;;19.68;25.56;97267.16;5136658;27;20421;-38
2022/03/24 09:17:42;;;;;;;19.87;9.27;;;;;;;19.82;24.67;97259.22;5136567;27;20810;-38
2022/03/24 09:20:12;;;;;;;19.70;10.87;;;;;;;19.82;24.29;97245.75;5136033;27;20452;-38
2022/03/24 09:22:40;;;;;;;21.77;9.93;;;;;;;19.84;25.04;97254.34;5136067;27;20470;-38
2022/03/24 09:25:08;;;;;;;19.70;10.10;;;;;;;19.96;24.33;97249.38;5136039;27;20941;-38
2022/03/24 09:27:36;;;;;;;10.73;8.90;;;;;;;20.13;24.00;97240.03;5136304;27;20434;-38
2022/03/24 09:30:07;;;;;;;26.03;13.23;;;;;;;20.02;24.06;97245.53;5136231;27;20437;-38
2022/03/24 09:32:35;;;;;;;21.83;13.30;;;;;;;19.99;24.15;97232.63;5136173;27;20444;-38
2022/03/24 09:35:04;;;;;;;15.43;12.17;;;;;;;20.17;24.58;97236.47;5135846;27;20908;-38
2022/03/24 09:37:32;;;;;;;21.23;8.90;;;;;;;20.13;23.93;97234.63;5136070;27;20441;-38
2022/03/24 09:40:00;;;;;;;17.10;9.37;;;;;;;20.15;24.03;97227.06;5135756;27;20537;-38
2022/03/24 09:42:29;;;;;;;27.10;13.47;;;;;;;20.13;23.48;97216.56;5135643;27;20502;-38
2022/03/24 09:45:00;;;;;;;19.17;9.97;;;;;;;20.20;23.43;97230.53;5135675;27;20527;-38
2022/03/24 09:47:30;;;;;;;19.67;12.80;;;;;;;20.22;23.04;97219.47;5135669;27;20512;-38
2022/03/24 09:49:57;;;;;;;16.30;10.20;;;;;;;20.33;23.84;97234.41;5135515;27;20441;-38
2022/03/24 09:52:26;;;;;;;16.30;8.77;;;;;;;20.49;23.49;97242.31;5135844;27;20507;-38
2022/03/24 09:54:54;;;;;;;13.00;8.83;;;;;;;20.37;23.52;97240.84;5135973;27;20992;-38
2022/03/24 09:57:21;;;;;;;16.07;8.73;;;;;;;20.23;22.57;97202.19;5135628;27;20446;-38
2022/03/24 09:59:48;;;;;;;18.50;9.43;;;;;;;20.28;22.45;97201.31;5135319;27;20946;-38
2022/03/24 10:02:16;;;;;;;21.33;9.63;;;;;;;20.28;22.92;97204.81;5135158;27;20465;-38
2022/03/24 10:04:49;;;;;;;20.20;10.00;;;;;;;20.35;24.07;97216.06;5135214;27;21007;-38
2022/03/24 10:07:16;;;;;;;13.37;10.07;;;;;;;;;;5135548;27;20460;-38
2022/03/24 10:09:46;;;;;;;18.73;9.00;;;;;;;20.14;22.83;97199.31;5135235;27;20936;-37
2022/03/24 10:12:21;;;;;;;20.00;10.93;;;;;;;20.18;23.54;97213.03;5135044;27;20447;-37
2022/03/24 10:15:02;;;;;;;12.33;10.17;;;;;;;20.34;23.45;97186.69;5135059;27;20497;-37
2022/03/24 10:17:30;;;;;;;15.43;8.47;;;;;;;20.39;23.43;97187.44;5135389;27;20452;-37
2022/03/24 10:20:00;;;;;;;14.73;9.33;;;;;;;20.31;23.02;97187.28;5135324;27;20433;-37
2022/03/24 10:22:28;;;;;;;20.67;12.27;;;;;;;20.22;23.13;97182.50;5135266;27;20506;-37
2022/03/24 10:24:56;;;;;;;21.60;9.80;;;;;;;20.29;23.44;97178.66;5134714;27;20496;-37
2022/03/24 10:27:25;;;;;;;15.20;10.00;;;;;;;20.32;23.04;97188.84;5134889;27;20441;-37
2022/03/24 10:29:57;;;;;;;24.30;10.63;;;;;;;20.44;23.11;97171.16;5134854;27;20441;-38
2022/03/24 10:32:29;;;;;;;13.30;9.00;;;;;;;20.48;23.15;97171.41;5134849;27;20421;-38
2022/03/24 10:35:10;;;;;;;14.17;9.37;;;;;;;20.49;22.26;97162.19;5135199;27;20426;-37
2022/03/24 10:37:37;;;;;;;19.70;10.57;;;;;;;20.28;21.93;97164.38;5134748;27;20425;-37
2022/03/24 10:40:07;;;;;;;17.37;9.80;;;;;;;20.42;23.11;97159.88;5134676;27;20441;-38
2022/03/24 10:42:36;;;;;;;13.13;9.37;;;;;;;20.29;22.10;97160.59;5134955;27;20494;-38
2022/03/24 10:45:12;;;;;;;17.27;10.67;;;;;;;20.43;22.98;97152.56;5134905;27;20520;-39
2022/03/24 10:47:42;;;;;;;13.67;7.23;;;;;;;20.42;21.22;97162.56;5134662;27;20512;-38
2022/03/24 10:50:28;;;;;;;13.83;8.90;;;;;;;20.34;21.69;97149.72;5134929;27;20448;-38
2022/03/24 10:53:07;;;;;;;11.43;8.30;;;;;;;20.00;20.54;97145.34;5134800;27;20508;-38
2022/03/24 10:55:47;;;;;;;17.80;10.70;;;;;;;20.23;20.33;97153.66;5134828;27;20520;-37
2022/03/24 10:58:20;;;;;;;20.23;13.27;;;;;;;20.01;20.73;97152.31;5134101;27;21180;-38
2022/03/24 11:00:50;;;;;;;17.27;10.17;;;;;;;20.14;21.83;97150.00;5134262;27;20832;-38
2022/03/24 11:03:18;;;;;;;16.40;9.80;;;;;;;20.16;21.20;97126.28;5134305;27;21005;-38
2022/03/24 11:05:47;;;;;;;18.10;12.30;;;;;;;20.04;20.81;97124.78;5134428;27;20436;-37
2022/03/24 11:08:18;;;;;;;22.70;14.03;;;;;;;20.09;21.90;97133.88;5134341;27;20441;-38
2022/03/24 11:10:47;;;;;;;37.53;15.03;;;;;;;20.09;21.34;97134.72;5134282;27;20927;-38
2022/03/24 11:13:30;;;;;;;16.90;11.93;;;;;;;20.08;20.05;97145.78;5134317;27;20449;-38
2022/03/24 11:15:58;;;;;;;25.90;15.03;;;;;;;20.08;19.53;97129.59;5134359;27;20436;-38
2022/03/24 11:18:26;;;;;;;48.17;15.43;;;;;;;20.01;21.52;97124.56;5134548;27;20442;-37
2022/03/24 11:21:03;;;;;;;27.20;10.23;;;;;;;20.09;22.56;97117.72;5134550;27;20460;-37
2022/03/24 11:23:35;;;;;;;18.43;10.10;;;;;;;20.28;20.92;97115.84;5134159;28;20479;-38
2022/03/24 11:26:04;;;;;;;16.50;10.73;;;;;;;20.21;20.49;97112.72;5134480;27;20436;-38
2022/03/24 11:28:35;;;;;;;19.17;11.57;;;;;;;20.19;20.54;97112.19;5134473;27;20440;-38
2022/03/24 11:31:07;;;;;;;24.40;13.10;;;;;;;20.16;21.76;97107.41;5134255;27;20434;-38
2022/03/24 11:33:40;;;;;;;17.60;11.77;;;;;;;20.27;20.31;97116.94;5134131;27;20452;-38